Weather at Gods River Airport

Public forecast

Using degrees Celsius for public forecast. Weather courtesy of forecast.io.

Closest aviation weather report (METAR) to Gods River Airport

Report is more than 2 hours old.

Closest report is Island Lake Airport, 62.3 nm (115.4 km) SSW. Retrieved 2021/06/17 00:00 UTC (2 hours ago):

CYIV 170000Z 16007KT 15SM OVC040 25/14 A2955 RMK SC8 SLP011 DENSITY ALT 2600FT

Closest aviation forecast (TAF) to Gods River Airport

Closest forecast is Island Lake Airport, 62.3 nm (115.4 km) SSW. Retrieved 2021-06-17 01:39 UTC (22 minutes ago):

TAF CYIV 170038Z 1701/1713 17010KT P6SM BKN040 TEMPO 1701/1702 SCT040 FM170200 20012G22KT P6SM BKN040 TEMPO 1702/1706 P6SM -SHRA FM170600 26015G25KT P6SM FEW040 RMK NXT FCST BY 170700Z